Time;durP1;ratioP1;P1;durP2;ratioP2;P2;SDS_P1;SDS_P2;PMS_P1;PMS_P2;Temp;Humidity;BMP_temperature;BMP_pressure;BME280_temperature;BME280_humidity;BME280_pressure;Samples;Min_cycle;Max_cycle;Signal;HPM_P1;HPM_P2
2023/10/04 00:00:30;;;;;;;14.18;3.58;;;;;;;3.75;100.00;100377.44;4955728;28;20135;-67
2023/10/04 00:02:58;;;;;;;13.90;2.60;;;;;;;3.86;100.00;100406.59;4955884;28;20051;-68
2023/10/04 00:05:25;;;;;;;7.82;2.17;;;;;;;3.42;100.00;100322.66;4955699;28;20051;-66
2023/10/04 00:07:55;;;;;;;14.10;2.83;;;;;;;3.41;100.00;100322.75;4955766;28;20054;-68
2023/10/04 00:10:23;;;;;;;18.35;3.15;;;;;;;3.24;100.00;100314.38;4955870;28;20110;-68
2023/10/04 00:12:51;;;;;;;12.32;2.95;;;;;;;3.23;100.00;100333.03;4954912;29;20078;-69
2023/10/04 00:15:20;;;;;;;9.93;2.65;;;;;;;3.04;100.00;100313.31;4955635;28;20467;-68
2023/10/04 00:17:48;;;;;;;11.60;3.45;;;;;;;3.11;100.00;100338.38;4955847;28;20098;-67
2023/10/04 00:20:18;;;;;;;17.90;3.63;;;;;;;2.97;100.00;100319.22;4937983;28;20063;-68
2023/10/04 00:22:48;;;;;;;13.52;2.67;;;;;;;2.80;100.00;100313.44;4936240;29;20048;-67
2023/10/04 00:25:21;;;;;;;11.55;3.28;;;;;;;0.82;100.00;99999.78;4936204;29;20451;-67
2023/10/04 00:27:50;;;;;;;17.58;2.92;;;;;;;-1.37;100.00;99652.13;4936521;29;20084;-67
2023/10/04 00:30:18;;;;;;;14.48;3.08;;;;;;;-1.38;100.00;99667.06;4936391;29;20066;-67
2023/10/04 00:32:46;;;;;;;17.05;3.40;;;;;;;-1.20;100.00;99691.22;4936126;29;20043;-67
2023/10/04 00:35:17;;;;;;;12.23;3.75;;;;;;;-1.25;100.00;99689.91;4934974;29;20051;-68
2023/10/04 00:37:45;;;;;;;13.30;2.72;;;;;;;-2.98;100.00;99415.66;4936264;29;20044;-68
2023/10/04 00:40:12;;;;;;;15.63;3.25;;;;;;;-3.22;100.00;99378.81;4935340;29;20060;-67
2023/10/04 00:42:40;;;;;;;12.40;3.08;;;;;;;-2.27;100.00;99546.31;4935844;29;20062;-67
2023/10/04 00:45:13;;;;;;;11.10;2.88;;;;;;;-2.33;100.00;99533.63;4935907;29;20051;-68
2023/10/04 00:47:43;;;;;;;16.73;3.20;;;;;;;-3.30;100.00;99390.69;4935777;29;20515;-68
2023/10/04 00:50:16;;;;;;;16.55;3.28;;;;;;;-3.46;100.00;99373.47;4943656;29;20103;-63
2023/10/04 00:53:01;;;;;;;13.73;2.95;;;;;;;-3.40;100.00;99389.63;4948466;29;20071;-62
2023/10/04 00:55:29;;;;;;;15.02;3.92;;;;;;;-3.30;100.00;99408.19;4948395;29;20058;-64
2023/10/04 00:57:56;;;;;;;11.85;3.58;;;;;;;-3.24;100.00;99406.94;4948526;28;20059;-62
2023/10/04 01:00:24;;;;;;;13.57;2.83;;;;;;;-2.99;100.00;99442.84;4948659;29;20083;-64
2023/10/04 01:02:52;;;;;;;13.48;3.17;;;;;;;-3.07;100.00;99433.69;4948661;29;20051;-63
2023/10/04 01:05:24;;;;;;;13.20;3.20;;;;;;;-2.99;100.00;99448.09;4948211;29;20047;-62
2023/10/04 01:07:53;;;;;;;10.52;2.80;;;;;;;-3.59;100.00;99365.59;4948485;29;20063;-65
2023/10/04 01:10:27;;;;;;;14.30;3.20;;;;;;;-3.67;100.00;99355.63;4949456;29;20043;-64
2023/10/04 01:12:55;;;;;;;15.82;2.55;;;;;;;-3.79;100.00;99331.09;4949012;29;20071;-63
2023/10/04 01:15:36;;;;;;;13.68;2.88;;;;;;;-3.92;100.00;99317.13;4948705;29;20052;-65
2023/10/04 01:18:07;;;;;;;10.33;2.30;;;;;;;-3.49;100.00;99373.66;4949631;29;20102;-62
2023/10/04 01:20:34;;;;;;;10.05;2.83;;;;;;;-3.10;100.00;99452.28;4930558;29;20285;-62
2023/10/04 01:23:02;;;;;;;9.65;3.00;;;;;;;-2.93;100.00;99479.97;4929194;29;20064;-63
2023/10/04 01:25:31;;;;;;;13.55;2.75;;;;;;;-4.13;100.00;99300.22;4930389;29;20075;-63
2023/10/04 01:28:00;;;;;;;11.05;2.80;;;;;;;-3.99;100.00;99320.25;4930808;29;20127;-64
2023/10/04 01:30:28;;;;;;;9.60;2.97;;;;;;;-4.31;100.00;99279.53;4931054;29;20063;-64
2023/10/04 01:32:54;;;;;;;13.35;3.25;;;;;;;-4.36;100.00;99265.06;4929553;29;20067;-63
2023/10/04 01:35:24;;;;;;;16.02;3.40;;;;;;;-4.68;100.00;99212.22;4930360;29;20052;-63
2023/10/04 01:37:52;;;;;;;16.13;2.83;;;;;;;-6.14;100.00;98983.75;4930985;29;20036;-62
2023/10/04 01:40:19;;;;;;;15.18;3.65;;;;;;;-6.58;100.00;98926.53;4929927;29;20052;-61
2023/10/04 01:42:46;;;;;;;14.35;3.50;;;;;;;-6.94;100.00;98860.09;4929883;29;20409;-63
2023/10/04 01:45:15;;;;;;;11.68;3.42;;;;;;;-7.51;100.00;98768.94;4930397;29;20044;-63
2023/10/04 01:47:42;;;;;;;16.67;3.25;;;;;;;-7.34;100.00;98792.19;4929660;29;20059;-62
2023/10/04 01:50:10;;;;;;;15.35;3.47;;;;;;;-7.38;100.00;98795.94;4930239;29;20124;-63
2023/10/04 01:52:49;;;;;;;17.75;3.38;;;;;;;-7.55;100.00;98773.50;4928021;29;20056;-62
2023/10/04 01:55:17;;;;;;;15.93;3.42;;;;;;;-7.73;100.00;98738.19;4929474;29;20055;-65
2023/10/04 01:57:45;;;;;;;16.23;3.08;;;;;;;-7.75;100.00;98743.47;4929133;29;20052;-64
2023/10/04 02:00:22;;;;;;;8.00;2.92;;;;;;;-7.37;100.00;98793.22;4929831;29;20432;-63
2023/10/04 02:02:49;;;;;;;10.00;3.03;;;;;;;-7.72;100.00;98761.50;4929971;29;20388;-63
2023/10/04 02:09:09;;;;;;;14.43;4.15;;;;;;;-10.00;100.00;98380.91;4907945;29;20055;-61
2023/10/04 02:11:36;;;;;;;11.85;3.13;;;;;;;-8.28;100.00;98666.88;4928715;29;20051;-68
2023/10/04 02:14:03;;;;;;;10.48;3.22;;;;;;;-8.69;100.00;98612.13;4940591;29;20098;-63
2023/10/04 02:16:30;;;;;;;13.70;4.00;;;;;;;-8.55;100.00;98638.97;4947591;29;20047;-63
2023/10/04 02:18:57;;;;;;;16.73;2.90;;;;;;;-10.98;100.00;98249.13;4954871;28;20134;-64
2023/10/04 02:21:26;;;;;;;12.35;3.17;;;;;;;-10.46;100.00;98321.31;4966659;28;20074;-63
2023/10/04 02:23:54;;;;;;;13.23;3.13;;;;;;;-9.90;100.00;98401.91;4962308;28;20056;-61
2023/10/04 02:26:23;;;;;;;14.80;2.97;;;;;;;-7.79;100.00;98747.19;4948499;29;20047;-63
2023/10/04 02:28:53;;;;;;;18.35;3.67;;;;;;;-8.37;100.00;98670.03;4946233;29;20047;-62
2023/10/04 02:31:20;;;;;;;18.98;3.55;;;;;;;-8.10;100.00;98690.94;4947775;28;20055;-62
2023/10/04 02:33:47;;;;;;;17.45;3.60;;;;;;;-7.34;100.00;98810.44;4947102;28;20047;-63
2023/10/04 02:36:13;;;;;;;15.20;3.53;;;;;;;-5.81;100.00;99053.88;4947026;29;20052;-63
2023/10/04 02:38:40;;;;;;;13.20;3.08;;;;;;;-6.67;100.00;98923.59;4946733;28;20512;-63
2023/10/04 02:41:10;;;;;;;11.38;2.50;;;;;;;-8.25;100.00;98664.09;4946945;28;20047;-65
2023/10/04 02:43:40;;;;;;;18.92;3.45;;;;;;;-7.62;100.00;98773.03;4938162;28;20397;-65
2023/10/04 02:46:06;;;;;;;16.45;3.65;;;;;;;-7.60;100.00;98762.56;4934198;29;20452;-65
2023/10/04 02:48:34;;;;;;;14.35;3.42;;;;;;;-7.82;100.00;98747.38;4934140;29;20153;-66
2023/10/04 02:51:01;;;;;;;13.18;3.80;;;;;;;-8.32;100.00;98662.81;4933893;28;20079;-65
2023/10/04 02:53:28;;;;;;;17.65;3.78;;;;;;;-8.30;100.00;98666.13;4933552;29;20063;-65
2023/10/04 02:55:57;;;;;;;17.02;4.05;;;;;;;-8.32;100.00;98683.59;4933495;29;20106;-65
2023/10/04 02:58:24;;;;;;;16.42;4.05;;;;;;;-8.46;100.00;98644.59;4933606;29;20043;-65
2023/10/04 03:00:51;;;;;;;12.60;3.42;;;;;;;-8.10;100.00;98701.34;4933870;29;20103;-65
2023/10/04 03:03:22;;;;;;;14.45;4.07;;;;;;;-8.15;100.00;98706.84;4933715;29;20472;-66
2023/10/04 03:05:51;;;;;;;13.57;4.20;;;;;;;-8.04;100.00;98719.22;4932323;29;20044;-66
2023/10/04 03:08:18;;;;;;;16.83;4.05;;;;;;;-7.59;100.00;98787.66;4933737;28;20071;-65
2023/10/04 03:10:50;;;;;;;11.93;3.63;;;;;;;-7.49;100.00;98803.56;4933642;29;20044;-65
2023/10/04 03:13:27;;;;;;;9.30;3.90;;;;;;;-7.17;100.00;98856.31;4932939;29;20048;-65
2023/10/04 03:15:54;;;;;;;15.18;4.22;;;;;;;-7.36;100.00;98817.50;4932751;29;20054;-65
2023/10/04 03:18:20;;;;;;;14.40;4.35;;;;;;;-7.49;100.00;98795.75;4933032;29;20044;-65
2023/10/04 03:23:33;;;;;;;11.25;4.13;;;;;;;-7.32;100.00;98829.41;4933210;29;20377;-65
2023/10/04 03:26:00;;;;;;;9.63;4.03;;;;;;;-7.26;100.00;98843.81;4932789;28;20114;-70
2023/10/04 03:28:30;;;;;;;12.93;3.92;;;;;;;-7.13;100.00;98863.00;4932798;28;20690;-70
2023/10/04 03:30:57;;;;;;;16.65;4.78;;;;;;;-7.39;100.00;98825.53;4932844;28;20422;-68
2023/10/04 03:33:26;;;;;;;11.70;4.05;;;;;;;-7.44;100.00;98827.53;4932754;28;20056;-70
2023/10/04 03:35:53;;;;;;;15.13;4.32;;;;;;;-6.99;100.00;98901.25;4932173;29;20095;-69
2023/10/04 03:38:25;;;;;;;15.93;5.00;;;;;;;-6.83;100.00;98928.06;4932545;29;20126;-68
2023/10/04 03:40:55;;;;;;;11.48;3.95;;;;;;;-7.27;100.00;98856.00;4932222;28;20468;-69
2023/10/04 03:43:22;;;;;;;10.23;3.65;;;;;;;-7.36;100.00;98852.22;4932357;29;20048;-69
2023/10/04 03:45:49;;;;;;;10.93;4.43;;;;;;;-7.32;100.00;98857.25;4932455;29;20083;-67
2023/10/04 03:48:15;;;;;;;15.70;3.90;;;;;;;-7.62;100.00;98824.28;4932300;29;20052;-69
2023/10/04 03:50:49;;;;;;;16.05;4.65;;;;;;;-8.36;100.00;98708.13;4932851;29;20461;-69
2023/10/04 03:53:16;;;;;;;16.85;4.40;;;;;;;-8.11;100.00;98738.72;4932372;28;20401;-68
2023/10/04 03:55:43;;;;;;;14.20;3.85;;;;;;;-8.11;100.00;98739.56;4932317;29;20055;-67
2023/10/04 03:58:11;;;;;;;15.82;4.90;;;;;;;-8.86;100.00;98623.53;4932292;29;20492;-68
2023/10/04 04:00:39;;;;;;;15.75;4.68;;;;;;;-8.52;100.00;98681.34;4932455;29;20130;-67
2023/10/04 04:03:08;;;;;;;10.55;4.18;;;;;;;-8.17;100.00;98734.72;4931311;29;20054;-67
2023/10/04 04:05:44;;;;;;;16.75;4.35;;;;;;;-8.21;100.00;98733.22;4933073;29;20044;-69
2023/10/04 04:08:13;;;;;;;10.30;4.05;;;;;;;-8.19;100.00;98731.38;4931113;28;20127;-68
2023/10/04 04:10:43;;;;;;;11.85;4.47;;;;;;;-8.07;100.00;98748.84;4932353;28;20067;-67
2023/10/04 04:13:09;;;;;;;13.43;5.28;;;;;;;-8.05;100.00;98769.59;4932950;28;20048;-67
2023/10/04 04:15:36;;;;;;;13.38;4.10;;;;;;;-8.04;100.00;98767.81;4934166;29;20449;-67
2023/10/04 04:18:20;;;;;;;9.73;4.07;;;;;;;-7.91;100.00;98789.59;4935326;29;20068;-69
2023/10/04 04:20:47;;;;;;;14.85;5.38;;;;;;;-6.05;100.00;99084.16;4954254;28;20458;-67
2023/10/04 04:23:15;;;;;;;19.20;5.25;;;;;;;-6.46;100.00;99014.47;4954603;28;20069;-68
2023/10/04 04:25:43;;;;;;;12.07;4.82;;;;;;;-6.79;100.00;98962.59;4954015;28;20047;-66
2023/10/04 04:28:14;;;;;;;15.30;3.88;;;;;;;-6.28;100.00;99049.88;4954599;28;20139;-67
2023/10/04 04:30:42;;;;;;;13.75;4.35;;;;;;;-6.47;100.00;99024.06;4954049;28;20051;-68
2023/10/04 04:33:10;;;;;;;15.00;4.55;;;;;;;-6.38;100.00;99024.44;4954901;28;20047;-70
2023/10/04 04:38:19;;;;;;;12.93;4.07;;;;;;;-5.55;100.00;99163.75;4955345;28;20067;-70
2023/10/04 04:40:49;;;;;;;14.27;4.30;;;;;;;-7.66;100.00;98843.63;4954544;28;20540;-70
2023/10/04 04:45:54;;;;;;;15.60;4.00;;;;;;;-8.03;100.00;98785.09;4954463;28;20047;-69
2023/10/04 04:48:25;;;;;;;13.48;3.50;;;;;;;-8.26;100.00;98739.59;4953853;28;20057;-70
2023/10/04 04:50:58;;;;;;;11.80;3.88;;;;;;;-7.84;100.00;98804.75;4954216;28;20047;-69
2023/10/04 04:53:27;;;;;;;12.38;3.42;;;;;;;-7.85;100.00;98802.22;4953979;28;20099;-71
2023/10/04 04:55:55;;;;;;;14.73;4.65;;;;;;;-10.30;100.00;98434.50;4954074;28;20055;-70
2023/10/04 04:58:22;;;;;;;11.85;4.15;;;;;;;-12.60;100.00;98050.28;4954108;28;20420;-70
2023/10/04 05:00:55;;;;;;;15.35;3.88;;;;;;;-11.78;100.00;98187.16;4959137;28;20047;-63
2023/10/04 05:03:26;;;;;;;17.40;5.00;;;;;;;-12.09;100.00;98152.59;4966289;28;20055;-64
2023/10/04 05:05:55;;;;;;;17.23;3.83;;;;;;;-12.12;100.00;98145.00;4965773;28;20047;-64
2023/10/04 05:08:25;;;;;;;17.05;4.88;;;;;;;-11.62;100.00;98231.09;4965791;28;20287;-62
2023/10/04 05:10:55;;;;;;;11.25;3.95;;;;;;;-9.62;100.00;98561.22;4965721;28;20516;-63
2023/10/04 05:13:22;;;;;;;17.80;6.00;;;;;;;-9.82;100.00;98520.81;4966343;28;20074;-62
2023/10/04 05:15:49;;;;;;;20.77;8.05;;;;;;;-9.87;100.00;98518.47;4965710;28;20075;-64
2023/10/04 05:18:17;;;;;;;12.85;3.78;;;;;;;-9.69;100.00;98546.91;4963759;28;20062;-63
2023/10/04 05:20:53;;;;;;;14.20;4.43;;;;;;;-9.50;100.00;98576.13;4945808;29;20047;-64
2023/10/04 05:23:22;;;;;;;13.13;3.85;;;;;;;-9.25;100.00;98609.31;4945706;29;20091;-63
2023/10/04 05:25:50;;;;;;;14.68;4.15;;;;;;;-7.73;100.00;98852.72;4946836;29;20048;-63
2023/10/04 05:28:16;;;;;;;13.27;3.80;;;;;;;-7.65;100.00;98871.34;4945602;29;20493;-63
2023/10/04 05:30:45;;;;;;;13.27;3.67;;;;;;;-8.02;100.00;98815.38;4947455;29;20492;-62
2023/10/04 05:33:13;;;;;;;8.48;3.30;;;;;;;-7.86;100.00;98842.19;4945872;29;20051;-62
2023/10/04 05:35:42;;;;;;;16.35;4.03;;;;;;;-7.08;100.00;98969.56;4947569;29;20097;-62
2023/10/04 05:38:11;;;;;;;11.05;3.70;;;;;;;-7.71;100.00;98871.69;4947107;29;20059;-64
2023/10/04 05:40:45;;;;;;;8.60;3.22;;;;;;;-7.86;100.00;98847.41;4946091;29;20051;-63
2023/10/04 05:43:12;;;;;;;11.85;3.72;;;;;;;-7.46;100.00;98912.78;4946050;29;20080;-64
2023/10/04 05:45:42;;;;;;;17.40;4.38;;;;;;;-7.07;100.00;98974.69;4945580;29;20465;-63
2023/10/04 05:48:10;;;;;;;13.60;3.58;;;;;;;-5.75;100.00;99183.25;4944976;29;20105;-62
2023/10/04 05:50:38;;;;;;;11.82;3.55;;;;;;;-5.75;100.00;99189.31;4945982;29;20071;-69
2023/10/04 05:53:06;;;;;;;13.80;3.97;;;;;;;-4.88;100.00;99331.22;4946585;29;20047;-62
2023/10/04 05:55:36;;;;;;;13.93;3.88;;;;;;;-4.64;100.00;99366.31;4947212;28;20051;-62
2023/10/04 05:58:07;;;;;;;8.98;3.22;;;;;;;-4.30;100.00;99427.00;4946425;29;20111;-63
2023/10/04 06:00:37;;;;;;;16.40;4.17;;;;;;;-4.61;100.00;99380.97;4945784;29;20052;-64
2023/10/04 06:03:06;;;;;;;11.65;3.33;;;;;;;-5.09;100.00;99313.31;4946351;29;20411;-63
2023/10/04 06:05:35;;;;;;;7.30;2.88;;;;;;;-4.35;100.00;99423.81;4946297;29;20058;-65
2023/10/04 06:08:06;;;;;;;15.60;4.05;;;;;;;-4.35;100.00;99416.78;4945258;29;20076;-63
2023/10/04 06:10:33;;;;;;;14.80;3.40;;;;;;;-3.07;100.00;99633.06;4946278;29;20461;-63
2023/10/04 06:13:00;;;;;;;10.70;3.00;;;;;;;-1.94;100.00;99803.34;4944490;29;20047;-63
2023/10/04 06:15:27;;;;;;;13.95;3.60;;;;;;;-1.65;100.00;99853.97;4945618;29;20051;-63
2023/10/04 06:17:54;;;;;;;19.48;3.80;;;;;;;-0.01;100.00;100121.03;4945525;28;20044;-63
2023/10/04 06:20:28;;;;;;;13.38;3.85;;;;;;;-0.08;100.00;100112.72;4963415;28;20168;-63
2023/10/04 06:23:00;;;;;;;11.80;3.92;;;;;;;-0.71;100.00;100001.13;4963767;28;20122;-64
2023/10/04 06:25:29;;;;;;;16.55;5.25;;;;;;;-0.53;100.00;100029.78;4955094;28;20427;-71
2023/10/04 06:27:58;;;;;;;13.80;3.47;;;;;;;0.09;100.00;100124.72;4952596;28;20047;-70
2023/10/04 06:30:31;;;;;;;13.52;3.50;;;;;;;1.87;100.00;100408.66;4952434;28;20055;-70
2023/10/04 06:33:04;;;;;;;16.45;4.47;;;;;;;2.26;100.00;100462.28;4952323;28;20126;-70
2023/10/04 06:35:32;;;;;;;10.93;3.83;;;;;;;2.32;100.00;100471.59;4952077;28;20043;-70
2023/10/04 06:38:06;;;;;;;10.77;3.30;;;;;;;3.07;100.00;100583.41;4951864;28;20043;-71
2023/10/04 06:40:34;;;;;;;8.77;3.67;;;;;;;4.06;100.00;100720.88;4952903;28;20118;-72
2023/10/04 06:43:06;;;;;;;11.25;3.95;;;;;;;5.58;100.00;100974.84;4952408;28;20329;-71
2023/10/04 06:45:34;;;;;;;15.13;3.53;;;;;;;5.83;100.00;100997.69;4952326;28;20047;-69
2023/10/04 06:48:05;;;;;;;14.00;3.30;;;;;;;6.65;100.00;101131.41;4952647;28;20452;-70
2023/10/04 06:50:36;;;;;;;13.30;3.13;;;;;;;7.28;100.00;101205.44;4950943;29;20043;-69
2023/10/04 06:53:03;;;;;;;16.05;3.63;;;;;;;7.89;100.00;101286.66;4952315;28;20051;-71
2023/10/04 06:55:32;;;;;;;13.43;3.53;;;;;;;8.04;100.00;101291.69;4951893;28;20054;-70
2023/10/04 06:57:59;;;;;;;16.92;3.85;;;;;;;8.24;100.00;101322.91;4952328;28;20043;-70
2023/10/04 07:00:31;;;;;;;9.48;3.10;;;;;;;8.64;100.00;101370.28;4952297;28;20055;-70
2023/10/04 07:02:59;;;;;;;16.90;3.40;;;;;;;9.07;100.00;101377.28;4951623;28;20411;-70
2023/10/04 07:05:47;;;;;;;11.15;3.63;;;;;;;9.52;100.00;101415.25;4952244;28;20423;-70
2023/10/04 07:08:16;;;;;;;9.57;3.75;;;;;;;9.89;100.00;101425.38;4951790;28;20054;-69
2023/10/04 07:10:44;;;;;;;12.20;3.60;;;;;;;10.21;100.00;101459.13;4951993;28;20079;-70
2023/10/04 07:13:11;;;;;;;12.85;3.63;;;;;;;10.24;100.00;101482.97;4951746;28;20058;-69
2023/10/04 07:15:39;;;;;;;9.05;3.03;;;;;;;10.09;100.00;101482.53;4952187;28;20387;-69
2023/10/04 07:18:10;;;;;;;17.33;3.28;;;;;;;9.51;100.00;101452.91;4952077;28;20058;-69
2023/10/04 07:20:38;;;;;;;14.00;3.92;;;;;;;9.83;100.00;101462.59;4933165;28;20043;-70
2023/10/04 07:23:07;;;;;;;15.32;4.00;;;;;;;9.62;100.00;101465.34;4931377;29;20052;-70
2023/10/04 07:25:37;;;;;;;17.58;4.03;;;;;;;9.91;100.00;101466.25;4931568;29;20460;-65
2023/10/04 07:28:08;;;;;;;11.00;3.40;;;;;;;9.80;100.00;101471.75;4933104;29;20063;-64
2023/10/04 07:30:38;;;;;;;13.93;4.40;;;;;;;9.88;100.00;101479.09;4932162;29;20147;-68
2023/10/04 07:33:07;;;;;;;13.88;4.32;;;;;;;9.92;100.00;101485.88;4932796;29;20043;-65
2023/10/04 07:35:34;;;;;;;13.65;3.92;;;;;;;10.42;100.00;101500.06;4932238;29;20389;-65
2023/10/04 07:38:04;;;;;;;13.70;3.17;;;;;;;10.44;100.00;101524.06;4932701;29;20047;-70
2023/10/04 07:40:31;;;;;;;12.30;3.78;;;;;;;10.59;100.00;101530.75;4932452;29;20460;-69
2023/10/04 07:42:59;;;;;;;9.82;3.67;;;;;;;10.77;100.00;101522.00;4932510;29;20479;-66
2023/10/04 07:45:28;;;;;;;15.95;3.47;;;;;;;10.82;100.00;101544.72;4932178;29;20075;-65
2023/10/04 07:47:57;;;;;;;13.15;3.33;;;;;;;10.76;100.00;101544.47;4932911;29;20048;-64
2023/10/04 07:50:25;;;;;;;18.27;3.13;;;;;;;10.94;100.00;101540.06;4933290;29;20052;-65
2023/10/04 07:52:54;;;;;;;12.95;3.30;;;;;;;11.04;100.00;101543.59;4936756;29;20043;-64
2023/10/04 07:55:24;;;;;;;12.60;3.42;;;;;;;10.90;100.00;101552.09;4936624;29;20531;-64
2023/10/04 07:57:53;;;;;;;10.63;3.28;;;;;;;11.00;100.00;101555.63;4936201;29;20115;-64
2023/10/04 08:00:20;;;;;;;14.30;4.10;;;;;;;11.17;100.00;101549.53;4936909;29;20056;-66
2023/10/04 08:02:51;;;;;;;15.98;4.00;;;;;;;11.66;100.00;101570.94;4936641;29;20066;-66
2023/10/04 08:05:21;;;;;;;10.13;3.78;;;;;;;11.81;100.00;101585.56;4936930;29;20051;-66
2023/10/04 08:07:48;;;;;;;13.43;3.50;;;;;;;12.12;100.00;101593.38;4936267;29;20048;-66
2023/10/04 08:10:23;;;;;;;10.90;3.28;;;;;;;12.21;100.00;101592.47;4936507;29;20139;-65
2023/10/04 08:12:52;;;;;;;8.43;3.05;;;;;;;12.65;100.00;101606.06;4935964;29;20099;-65
2023/10/04 08:15:21;;;;;;;11.90;3.22;;;;;;;12.74;100.00;101610.59;4936387;29;20063;-65
2023/10/04 08:17:49;;;;;;;15.80;3.47;;;;;;;12.99;100.00;101608.97;4935642;29;20048;-65
2023/10/04 08:20:16;;;;;;;12.35;3.60;;;;;;;12.90;100.00;101614.44;4954018;28;20054;-65
2023/10/04 08:22:45;;;;;;;13.82;2.70;;;;;;;12.74;100.00;101615.09;4955385;28;20039;-66
2023/10/04 08:25:16;;;;;;;15.07;3.25;;;;;;;13.04;100.00;101622.84;4954513;28;20055;-65
2023/10/04 08:27:44;;;;;;;12.90;3.87;;;;;;;13.11;100.00;101629.31;4955194;28;20051;-66
2023/10/04 08:30:12;;;;;;;12.27;3.38;;;;;;;13.18;100.00;101634.91;4954064;28;20051;-68
2023/10/04 08:32:43;;;;;;;15.25;3.25;;;;;;;13.16;100.00;101631.53;4954536;28;20077;-67
2023/10/04 08:35:21;;;;;;;9.00;3.17;;;;;;;12.89;100.00;101629.75;4954306;28;20122;-68
2023/10/04 08:37:49;;;;;;;20.05;3.80;;;;;;;12.97;100.00;101637.94;4954610;28;20118;-68
2023/10/04 08:40:19;;;;;;;15.93;4.15;;;;;;;13.12;100.00;101640.91;4954458;28;20051;-69
2023/10/04 08:42:52;;;;;;;13.55;3.05;;;;;;;13.27;100.00;101644.75;4952589;28;20062;-68
2023/10/04 08:45:20;;;;;;;14.52;3.28;;;;;;;13.58;100.00;101655.09;4954432;28;20051;-68
2023/10/04 08:47:52;;;;;;;9.50;3.63;;;;;;;13.24;100.00;101642.34;4954294;28;20047;-68
2023/10/04 08:50:35;;;;;;;11.63;3.00;;;;;;;13.06;100.00;101644.22;4953790;28;20086;-67
2023/10/04 08:53:07;;;;;;;18.80;3.75;;;;;;;13.08;100.00;101651.16;4954180;28;20110;-68
2023/10/04 08:55:37;;;;;;;;;;;;;;;12.99;100.00;101648.53;4954581;28;20125;-68
2023/10/04 08:58:04;;;;;;;13.00;2.90;;;;;;;13.08;100.00;101647.63;4954157;28;20433;-67
2023/10/04 09:00:34;;;;;;;18.65;4.75;;;;;;;12.62;100.00;101650.28;4953837;28;20051;-68
2023/10/04 09:03:04;;;;;;;15.38;3.13;;;;;;;12.50;100.00;101653.38;4953452;28;20098;-68
2023/10/04 09:05:33;;;;;;;13.90;3.67;;;;;;;12.87;100.00;101656.00;4954054;28;20518;-67
2023/10/04 09:08:04;;;;;;;11.98;3.35;;;;;;;12.81;100.00;101659.31;4954206;28;20043;-68
2023/10/04 09:10:34;;;;;;;14.82;4.40;;;;;;;13.25;100.00;101652.16;4953099;28;20054;-68
2023/10/04 09:13:03;;;;;;;12.57;3.08;;;;;;;13.01;100.00;101657.31;4953453;28;20043;-68
2023/10/04 09:15:30;;;;;;;16.63;4.10;;;;;;;12.86;100.00;101655.13;4953860;28;20043;-68
2023/10/04 09:17:57;;;;;;;16.88;3.83;;;;;;;13.07;100.00;101646.75;4953720;28;20807;-69
2023/10/04 09:20:29;;;;;;;14.65;3.70;;;;;;;13.02;100.00;101661.69;4935483;28;20052;-68
2023/10/04 09:22:57;;;;;;;13.10;3.20;;;;;;;12.80;100.00;101668.34;4934038;29;20048;-69
2023/10/04 09:25:35;;;;;;;11.48;2.88;;;;;;;12.78;100.00;101665.81;4932699;29;20489;-68
2023/10/04 09:28:04;;;;;;;19.95;3.65;;;;;;;12.90;100.00;101673.69;4934221;29;20052;-68
2023/10/04 09:30:34;;;;;;;13.32;3.30;;;;;;;12.72;100.00;101671.78;4934013;29;20412;-69
2023/10/04 09:33:20;;;;;;;18.00;3.67;;;;;;;12.77;100.00;101676.75;4934863;29;20058;-68
2023/10/04 09:35:46;;;;;;;11.55;3.20;;;;;;;12.85;100.00;101676.84;4934231;29;20295;-68
2023/10/04 09:38:29;;;;;;;15.35;3.00;;;;;;;12.55;100.00;101675.28;4933948;29;20127;-68
2023/10/04 09:40:57;;;;;;;13.85;3.78;;;;;;;12.65;100.00;101665.31;4933725;29;20058;-69
2023/10/04 09:43:36;;;;;;;18.20;4.00;;;;;;;12.84;100.00;101669.78;4934035;29;20058;-69
2023/10/04 09:46:09;;;;;;;17.33;3.88;;;;;;;13.04;100.00;101665.06;4934713;29;20044;-68
2023/10/04 09:48:40;;;;;;;12.48;3.13;;;;;;;14.13;100.00;101673.69;4933381;29;20408;-68
2023/10/04 09:51:09;;;;;;;9.27;3.03;;;;;;;14.27;100.00;101675.78;4934103;28;20055;-68
2023/10/04 09:53:40;;;;;;;11.75;3.60;;;;;;;14.25;100.00;101667.03;4933705;29;20131;-68
2023/10/04 09:56:11;;;;;;;;;;;;;;;14.24;100.00;101680.66;4933763;29;20047;-68
2023/10/04 09:58:48;;;;;;;11.32;2.92;;;;;;;14.12;100.00;101679.25;4933853;29;19935;-67
2023/10/04 10:01:17;;;;;;;9.88;2.78;;;;;;;14.29;100.00;101679.19;4933656;29;20558;-69
2023/10/04 10:03:53;;;;;;;11.60;3.53;;;;;;;14.30;100.00;101688.97;4934243;29;20058;-69
2023/10/04 10:06:23;;;;;;;11.32;3.17;;;;;;;14.45;100.00;101694.59;4933450;29;20051;-68
2023/10/04 10:08:58;;;;;;;11.15;2.88;;;;;;;14.42;100.00;101691.38;4933563;29;20424;-69
2023/10/04 10:11:26;;;;;;;11.63;2.75;;;;;;;14.43;100.00;101698.47;4933585;29;20055;-68
2023/10/04 10:13:55;;;;;;;13.20;2.97;;;;;;;15.03;100.00;101701.06;4932245;29;20043;-67
2023/10/04 10:16:23;;;;;;;9.10;3.00;;;;;;;14.96;100.00;101714.41;4933268;29;20063;-67
2023/10/04 10:18:52;;;;;;;13.27;3.25;;;;;;;14.79;100.00;101706.41;4939468;28;20047;-67
2023/10/04 10:21:19;;;;;;;8.38;3.28;;;;;;;15.28;100.00;101711.91;4952652;28;20444;-70
2023/10/04 10:24:03;;;;;;;11.95;3.10;;;;;;;15.14;100.00;101703.44;4952216;28;20074;-68
2023/10/04 10:26:33;;;;;;;10.85;2.97;;;;;;;15.58;100.00;101703.16;4951861;28;20051;-68
2023/10/04 10:29:04;;;;;;;12.02;3.15;;;;;;;15.64;100.00;101707.91;4951032;28;20087;-69
2023/10/04 10:31:31;;;;;;;11.48;3.15;;;;;;;15.68;100.00;101703.84;4952199;28;20126;-68
2023/10/04 10:34:02;;;;;;;13.53;3.57;;;;;;;15.17;100.00;101707.69;4950983;28;20126;-69
2023/10/04 10:36:33;;;;;;;9.45;3.28;;;;;;;14.99;100.00;101713.22;4951214;28;20158;-67
2023/10/04 10:39:18;;;;;;;14.63;3.50;;;;;;;14.08;100.00;101697.63;4952684;28;20496;-68
2023/10/04 10:41:51;;;;;;;10.68;3.25;;;;;;;13.96;100.00;101709.69;4952582;28;20039;-68
2023/10/04 10:44:24;;;;;;;16.25;3.40;;;;;;;13.58;100.00;101707.16;4950757;28;20055;-68
2023/10/04 10:46:55;;;;;;;10.70;2.80;;;;;;;13.52;100.00;101706.94;4952246;28;20111;-67
2023/10/04 10:49:52;;;;;;;14.18;3.35;;;;;;;13.23;100.00;101710.72;4952263;28;20051;-68
2023/10/04 10:52:22;;;;;;;15.82;3.17;;;;;;;13.68;100.00;101707.09;4950928;28;20074;-67
2023/10/04 10:54:53;;;;;;;11.02;2.97;;;;;;;13.85;100.00;101702.69;4952559;28;20491;-68
2023/10/04 10:57:21;;;;;;;7.80;2.80;;;;;;;14.38;100.00;101703.50;4950842;28;20055;-68
2023/10/04 10:59:49;;;;;;;10.43;3.40;;;;;;;14.51;100.00;101698.50;4951853;28;20051;-67
2023/10/04 11:02:17;;;;;;;8.32;2.88;;;;;;;14.47;100.00;101700.69;4951876;28;20055;-67
2023/10/04 11:04:44;;;;;;;13.18;3.00;;;;;;;14.45;100.00;101699.16;4951974;28;20484;-68
2023/10/04 11:07:11;;;;;;;15.00;3.00;;;;;;;14.47;100.00;101708.78;4951661;28;20488;-68
2023/10/04 11:09:43;;;;;;;8.77;3.30;;;;;;;14.41;100.00;101708.59;4951397;28;20078;-66
2023/10/04 11:12:17;;;;;;;12.77;3.75;;;;;;;14.55;100.00;101707.97;4952074;28;20054;-68
2023/10/04 11:14:44;;;;;;;14.80;3.75;;;;;;;14.71;100.00;101716.19;4951805;28;20130;-67
2023/10/04 11:17:11;;;;;;;11.23;3.03;;;;;;;14.63;100.00;101702.59;4951794;28;20064;-67
2023/10/04 11:19:38;;;;;;;13.27;3.45;;;;;;;14.73;100.00;101697.94;4938737;29;20047;-69
2023/10/04 11:22:05;;;;;;;13.07;4.07;;;;;;;14.68;100.00;101696.72;4932810;28;20071;-68
2023/10/04 11:24:36;;;;;;;12.65;3.72;;;;;;;14.20;100.00;101706.28;4934003;29;20066;-69
2023/10/04 11:29:52;;;;;;;12.55;3.45;;;;;;;13.91;100.00;101710.16;4857004;29;20084;-74
2023/10/04 11:32:21;;;;;;;17.98;3.83;;;;;;;13.61;100.00;101719.50;4865155;29;20069;-73
2023/10/04 11:34:48;;;;;;;13.32;3.42;;;;;;;13.63;100.00;101709.41;4838789;29;20049;-73
2023/10/04 11:37:15;;;;;;;10.95;3.58;;;;;;;14.50;100.00;101710.31;4864039;29;20041;-74
2023/10/04 11:39:44;;;;;;;10.95;3.35;;;;;;;14.61;100.00;101706.50;4870015;29;20462;-72